sensor_id;sensor_type;location;lat;lon;timestamp;P1;durP1;ratioP1;P2;durP2;ratioP2
572;SDS011;271;51.114;13.780;2024-03-02T00:02:34;56.13;;;34.60;;
572;SDS011;271;51.114;13.780;2024-03-02T00:05:27;62.03;;;36.73;;
572;SDS011;271;51.114;13.780;2024-03-02T00:08:14;55.97;;;34.90;;
572;SDS011;271;51.114;13.780;2024-03-02T00:11:12;57.83;;;35.13;;
572;SDS011;271;51.114;13.780;2024-03-02T00:14:01;65.90;;;39.77;;
572;SDS011;271;51.114;13.780;2024-03-02T00:16:49;61.60;;;36.90;;
572;SDS011;271;51.114;13.780;2024-03-02T00:19:40;58.93;;;36.30;;
572;SDS011;271;51.114;13.780;2024-03-02T00:22:28;65.13;;;37.70;;
572;SDS011;271;51.114;13.780;2024-03-02T00:25:16;59.73;;;36.50;;
572;SDS011;271;51.114;13.780;2024-03-02T00:28:04;59.97;;;38.40;;
572;SDS011;271;51.114;13.780;2024-03-02T00:30:56;58.40;;;35.90;;
572;SDS011;271;51.114;13.780;2024-03-02T00:33:46;60.57;;;37.63;;
572;SDS011;271;51.114;13.780;2024-03-02T00:36:36;57.63;;;37.20;;
572;SDS011;271;51.114;13.780;2024-03-02T00:39:24;57.70;;;34.90;;
572;SDS011;271;51.114;13.780;2024-03-02T00:42:12;57.60;;;35.57;;
572;SDS011;271;51.114;13.780;2024-03-02T00:44:59;56.27;;;35.37;;
572;SDS011;271;51.114;13.780;2024-03-02T00:47:48;57.27;;;36.80;;
572;SDS011;271;51.114;13.780;2024-03-02T00:50:35;58.37;;;34.63;;
572;SDS011;271;51.114;13.780;2024-03-02T00:53:25;56.33;;;34.33;;
572;SDS011;271;51.114;13.780;2024-03-02T00:56:13;53.63;;;31.87;;
572;SDS011;271;51.114;13.780;2024-03-02T00:59:01;54.70;;;34.90;;
572;SDS011;271;51.114;13.780;2024-03-02T01:01:49;59.50;;;34.67;;
572;SDS011;271;51.114;13.780;2024-03-02T01:04:37;58.23;;;35.90;;
572;SDS011;271;51.114;13.780;2024-03-02T01:07:24;59.57;;;35.73;;
572;SDS011;271;51.114;13.780;2024-03-02T01:10:14;56.00;;;33.23;;
572;SDS011;271;51.114;13.780;2024-03-02T01:13:01;51.63;;;33.13;;
572;SDS011;271;51.114;13.780;2024-03-02T01:15:49;57.10;;;35.03;;
572;SDS011;271;51.114;13.780;2024-03-02T01:18:37;59.47;;;37.07;;
572;SDS011;271;51.114;13.780;2024-03-02T01:21:25;62.83;;;37.20;;
572;SDS011;271;51.114;13.780;2024-03-02T01:24:12;60.17;;;36.43;;
572;SDS011;271;51.114;13.780;2024-03-02T01:27:06;57.50;;;35.67;;
572;SDS011;271;51.114;13.780;2024-03-02T01:29:53;53.77;;;35.00;;
572;SDS011;271;51.114;13.780;2024-03-02T01:32:41;54.50;;;35.10;;
572;SDS011;271;51.114;13.780;2024-03-02T01:35:29;59.30;;;38.80;;
572;SDS011;271;51.114;13.780;2024-03-02T01:38:16;57.63;;;36.73;;
572;SDS011;271;51.114;13.780;2024-03-02T01:41:04;62.67;;;39.93;;
572;SDS011;271;51.114;13.780;2024-03-02T01:43:53;57.13;;;35.03;;
572;SDS011;271;51.114;13.780;2024-03-02T01:46:41;55.70;;;35.03;;
572;SDS011;271;51.114;13.780;2024-03-02T01:49:28;56.60;;;32.90;;
572;SDS011;271;51.114;13.780;2024-03-02T01:52:16;52.23;;;30.43;;
572;SDS011;271;51.114;13.780;2024-03-02T01:55:04;53.80;;;32.03;;
572;SDS011;271;51.114;13.780;2024-03-02T01:57:53;53.63;;;32.53;;
572;SDS011;271;51.114;13.780;2024-03-02T02:00:42;55.77;;;33.27;;
572;SDS011;271;51.114;13.780;2024-03-02T02:03:30;61.27;;;34.87;;
572;SDS011;271;51.114;13.780;2024-03-02T02:06:18;54.80;;;32.17;;
572;SDS011;271;51.114;13.780;2024-03-02T02:09:07;54.27;;;31.00;;
572;SDS011;271;51.114;13.780;2024-03-02T02:11:55;48.47;;;27.67;;
572;SDS011;271;51.114;13.780;2024-03-02T02:14:46;56.53;;;32.70;;
572;SDS011;271;51.114;13.780;2024-03-02T02:17:36;54.43;;;33.13;;
572;SDS011;271;51.114;13.780;2024-03-02T02:20:24;51.53;;;31.03;;
572;SDS011;271;51.114;13.780;2024-03-02T02:23:13;54.17;;;31.17;;
572;SDS011;271;51.114;13.780;2024-03-02T02:26:01;53.80;;;30.57;;
572;SDS011;271;51.114;13.780;2024-03-02T02:28:49;55.63;;;31.37;;
572;SDS011;271;51.114;13.780;2024-03-02T02:31:37;49.00;;;29.93;;
572;SDS011;271;51.114;13.780;2024-03-02T02:34:25;50.73;;;31.43;;
572;SDS011;271;51.114;13.780;2024-03-02T02:37:13;52.30;;;32.00;;
572;SDS011;271;51.114;13.780;2024-03-02T02:40:02;56.07;;;33.30;;
572;SDS011;271;51.114;13.780;2024-03-02T02:42:50;57.03;;;34.40;;
572;SDS011;271;51.114;13.780;2024-03-02T02:45:38;55.70;;;33.73;;
572;SDS011;271;51.114;13.780;2024-03-02T02:48:26;54.77;;;31.67;;
572;SDS011;271;51.114;13.780;2024-03-02T02:51:14;53.27;;;30.77;;
572;SDS011;271;51.114;13.780;2024-03-02T02:54:02;59.80;;;33.77;;
572;SDS011;271;51.114;13.780;2024-03-02T02:56:51;62.90;;;36.77;;
572;SDS011;271;51.114;13.780;2024-03-02T02:59:39;64.57;;;36.17;;
572;SDS011;271;51.114;13.780;2024-03-02T03:02:27;70.40;;;38.90;;
572;SDS011;271;51.114;13.780;2024-03-02T03:05:15;67.43;;;34.80;;
572;SDS011;271;51.114;13.780;2024-03-02T03:08:03;57.80;;;33.90;;
572;SDS011;271;51.114;13.780;2024-03-02T03:10:51;62.87;;;36.10;;
572;SDS011;271;51.114;13.780;2024-03-02T03:13:40;60.00;;;35.70;;
572;SDS011;271;51.114;13.780;2024-03-02T03:16:28;55.57;;;34.00;;
572;SDS011;271;51.114;13.780;2024-03-02T03:19:16;59.30;;;34.90;;
572;SDS011;271;51.114;13.780;2024-03-02T03:22:03;58.47;;;34.70;;
572;SDS011;271;51.114;13.780;2024-03-02T03:24:51;57.87;;;32.93;;
572;SDS011;271;51.114;13.780;2024-03-02T03:27:39;60.93;;;31.80;;
572;SDS011;271;51.114;13.780;2024-03-02T03:30:28;54.13;;;33.00;;
572;SDS011;271;51.114;13.780;2024-03-02T03:33:16;63.00;;;34.07;;
572;SDS011;271;51.114;13.780;2024-03-02T03:36:04;57.00;;;32.60;;
572;SDS011;271;51.114;13.780;2024-03-02T03:38:52;60.50;;;32.63;;
572;SDS011;271;51.114;13.780;2024-03-02T03:41:40;61.77;;;33.73;;
572;SDS011;271;51.114;13.780;2024-03-02T03:44:28;62.60;;;34.07;;
572;SDS011;271;51.114;13.780;2024-03-02T03:47:17;63.50;;;34.33;;
572;SDS011;271;51.114;13.780;2024-03-02T03:50:06;62.47;;;34.13;;
572;SDS011;271;51.114;13.780;2024-03-02T03:52:54;68.10;;;35.77;;
572;SDS011;271;51.114;13.780;2024-03-02T03:55:42;65.70;;;34.43;;
572;SDS011;271;51.114;13.780;2024-03-02T03:58:32;63.17;;;35.07;;
572;SDS011;271;51.114;13.780;2024-03-02T04:01:20;61.93;;;33.47;;
572;SDS011;271;51.114;13.780;2024-03-02T04:04:09;67.27;;;36.03;;
572;SDS011;271;51.114;13.780;2024-03-02T04:06:57;65.80;;;34.93;;
572;SDS011;271;51.114;13.780;2024-03-02T04:09:45;63.33;;;31.07;;
572;SDS011;271;51.114;13.780;2024-03-02T04:12:32;59.07;;;33.50;;
572;SDS011;271;51.114;13.780;2024-03-02T04:15:20;62.77;;;33.27;;
572;SDS011;271;51.114;13.780;2024-03-02T04:18:09;61.20;;;33.10;;
572;SDS011;271;51.114;13.780;2024-03-02T04:20:58;60.40;;;34.90;;
572;SDS011;271;51.114;13.780;2024-03-02T04:23:46;65.30;;;35.70;;
572;SDS011;271;51.114;13.780;2024-03-02T04:26:34;65.90;;;34.13;;
572;SDS011;271;51.114;13.780;2024-03-02T04:29:21;64.83;;;34.90;;
572;SDS011;271;51.114;13.780;2024-03-02T04:32:09;67.10;;;35.20;;
572;SDS011;271;51.114;13.780;2024-03-02T04:34:57;68.73;;;35.93;;
572;SDS011;271;51.114;13.780;2024-03-02T04:37:49;61.90;;;35.87;;
572;SDS011;271;51.114;13.780;2024-03-02T04:40:36;72.10;;;37.67;;
572;SDS011;271;51.114;13.780;2024-03-02T04:43:24;78.20;;;38.23;;
572;SDS011;271;51.114;13.780;2024-03-02T04:46:12;68.13;;;34.93;;
572;SDS011;271;51.114;13.780;2024-03-02T04:48:59;70.50;;;34.97;;
572;SDS011;271;51.114;13.780;2024-03-02T04:51:47;63.00;;;33.27;;
572;SDS011;271;51.114;13.780;2024-03-02T04:54:36;62.40;;;32.67;;
572;SDS011;271;51.114;13.780;2024-03-02T04:57:44;67.13;;;35.17;;
572;SDS011;271;51.114;13.780;2024-03-02T05:00:32;60.57;;;29.33;;
572;SDS011;271;51.114;13.780;2024-03-02T05:03:20;68.20;;;36.50;;
572;SDS011;271;51.114;13.780;2024-03-02T05:06:11;64.37;;;33.90;;
572;SDS011;271;51.114;13.780;2024-03-02T05:08:59;62.00;;;31.27;;
572;SDS011;271;51.114;13.780;2024-03-02T05:11:48;67.57;;;36.20;;
572;SDS011;271;51.114;13.780;2024-03-02T05:14:55;72.30;;;35.80;;
572;SDS011;271;51.114;13.780;2024-03-02T05:17:43;60.07;;;31.80;;
572;SDS011;271;51.114;13.780;2024-03-02T05:20:30;67.03;;;33.60;;
572;SDS011;271;51.114;13.780;2024-03-02T05:23:18;61.63;;;33.13;;
572;SDS011;271;51.114;13.780;2024-03-02T05:26:06;67.80;;;35.27;;
572;SDS011;271;51.114;13.780;2024-03-02T05:28:55;63.93;;;30.83;;
572;SDS011;271;51.114;13.780;2024-03-02T05:31:43;65.10;;;32.13;;
572;SDS011;271;51.114;13.780;2024-03-02T05:34:31;60.83;;;30.83;;
572;SDS011;271;51.114;13.780;2024-03-02T05:37:20;58.50;;;30.40;;
572;SDS011;271;51.114;13.780;2024-03-02T05:40:08;58.70;;;29.00;;
572;SDS011;271;51.114;13.780;2024-03-02T05:43:02;58.37;;;30.17;;
572;SDS011;271;51.114;13.780;2024-03-02T05:45:51;62.43;;;31.63;;
572;SDS011;271;51.114;13.780;2024-03-02T05:48:38;60.97;;;32.83;;
572;SDS011;271;51.114;13.780;2024-03-02T05:51:26;58.73;;;30.20;;
572;SDS011;271;51.114;13.780;2024-03-02T05:54:14;55.97;;;30.97;;
572;SDS011;271;51.114;13.780;2024-03-02T05:57:01;60.43;;;31.13;;
572;SDS011;271;51.114;13.780;2024-03-02T06:00:03;59.40;;;30.60;;
572;SDS011;271;51.114;13.780;2024-03-02T06:02:56;66.13;;;30.73;;
572;SDS011;271;51.114;13.780;2024-03-02T06:05:43;60.13;;;30.93;;
572;SDS011;271;51.114;13.780;2024-03-02T06:08:31;56.20;;;30.43;;
572;SDS011;271;51.114;13.780;2024-03-02T06:11:19;57.50;;;29.77;;
572;SDS011;271;51.114;13.780;2024-03-02T06:14:07;58.00;;;30.10;;
572;SDS011;271;51.114;13.780;2024-03-02T06:16:55;59.50;;;31.57;;
572;SDS011;271;51.114;13.780;2024-03-02T06:19:44;53.50;;;29.93;;
572;SDS011;271;51.114;13.780;2024-03-02T06:22:32;58.27;;;29.53;;
572;SDS011;271;51.114;13.780;2024-03-02T06:25:20;52.23;;;29.23;;
572;SDS011;271;51.114;13.780;2024-03-02T06:28:08;58.47;;;29.03;;
572;SDS011;271;51.114;13.780;2024-03-02T06:30:55;56.00;;;31.47;;
572;SDS011;271;51.114;13.780;2024-03-02T06:33:43;58.60;;;31.10;;
572;SDS011;271;51.114;13.780;2024-03-02T06:36:32;58.93;;;31.87;;
572;SDS011;271;51.114;13.780;2024-03-02T06:39:20;55.60;;;30.83;;
572;SDS011;271;51.114;13.780;2024-03-02T06:42:07;57.43;;;29.87;;
572;SDS011;271;51.114;13.780;2024-03-02T06:44:55;55.70;;;29.13;;
572;SDS011;271;51.114;13.780;2024-03-02T06:47:42;50.97;;;28.57;;
572;SDS011;271;51.114;13.780;2024-03-02T06:50:30;52.80;;;29.27;;
572;SDS011;271;51.114;13.780;2024-03-02T06:53:19;52.57;;;28.33;;
572;SDS011;271;51.114;13.780;2024-03-02T06:56:08;51.87;;;25.37;;
572;SDS011;271;51.114;13.780;2024-03-02T06:58:56;57.90;;;29.10;;
572;SDS011;271;51.114;13.780;2024-03-02T07:01:43;49.53;;;26.10;;
572;SDS011;271;51.114;13.780;2024-03-02T07:04:31;50.03;;;26.33;;
572;SDS011;271;51.114;13.780;2024-03-02T07:07:19;55.33;;;28.47;;
572;SDS011;271;51.114;13.780;2024-03-02T07:10:08;47.80;;;26.27;;
572;SDS011;271;51.114;13.780;2024-03-02T07:12:56;53.40;;;25.80;;
572;SDS011;271;51.114;13.780;2024-03-02T07:15:44;51.77;;;25.90;;
572;SDS011;271;51.114;13.780;2024-03-02T07:18:51;47.07;;;23.67;;
572;SDS011;271;51.114;13.780;2024-03-02T07:21:40;52.20;;;25.17;;
572;SDS011;271;51.114;13.780;2024-03-02T07:24:29;45.27;;;25.30;;
572;SDS011;271;51.114;13.780;2024-03-02T07:27:18;51.13;;;27.00;;
572;SDS011;271;51.114;13.780;2024-03-02T07:30:06;48.27;;;22.77;;
572;SDS011;271;51.114;13.780;2024-03-02T07:32:54;47.97;;;23.67;;
572;SDS011;271;51.114;13.780;2024-03-02T07:35:42;46.43;;;21.73;;
572;SDS011;271;51.114;13.780;2024-03-02T07:38:29;51.10;;;24.23;;
572;SDS011;271;51.114;13.780;2024-03-02T07:41:19;46.00;;;24.47;;
572;SDS011;271;51.114;13.780;2024-03-02T07:44:08;48.37;;;22.93;;
572;SDS011;271;51.114;13.780;2024-03-02T07:46:57;46.50;;;24.93;;
572;SDS011;271;51.114;13.780;2024-03-02T07:49:45;45.17;;;24.10;;
572;SDS011;271;51.114;13.780;2024-03-02T07:52:33;46.20;;;24.60;;
572;SDS011;271;51.114;13.780;2024-03-02T07:55:20;43.07;;;22.00;;
572;SDS011;271;51.114;13.780;2024-03-02T07:58:09;47.20;;;22.83;;
572;SDS011;271;51.114;13.780;2024-03-02T08:01:00;45.53;;;22.80;;
572;SDS011;271;51.114;13.780;2024-03-02T08:03:48;48.03;;;22.97;;
572;SDS011;271;51.114;13.780;2024-03-02T08:06:36;45.70;;;22.93;;
572;SDS011;271;51.114;13.780;2024-03-02T08:09:24;49.27;;;23.07;;
572;SDS011;271;51.114;13.780;2024-03-02T08:12:12;43.03;;;22.13;;
572;SDS011;271;51.114;13.780;2024-03-02T08:14:59;40.77;;;21.07;;
572;SDS011;271;51.114;13.780;2024-03-02T08:17:48;44.00;;;21.93;;
572;SDS011;271;51.114;13.780;2024-03-02T08:20:36;41.63;;;22.20;;
572;SDS011;271;51.114;13.780;2024-03-02T08:23:24;42.53;;;20.90;;
572;SDS011;271;51.114;13.780;2024-03-02T08:26:12;45.50;;;22.50;;
572;SDS011;271;51.114;13.780;2024-03-02T08:29:00;39.77;;;19.60;;
572;SDS011;271;51.114;13.780;2024-03-02T08:31:49;40.50;;;20.80;;
572;SDS011;271;51.114;13.780;2024-03-02T08:34:38;42.63;;;20.90;;
572;SDS011;271;51.114;13.780;2024-03-02T08:37:26;41.57;;;20.97;;
572;SDS011;271;51.114;13.780;2024-03-02T08:40:13;39.43;;;19.90;;
572;SDS011;271;51.114;13.780;2024-03-02T08:43:02;41.37;;;19.50;;
572;SDS011;271;51.114;13.780;2024-03-02T08:45:50;40.07;;;19.70;;
572;SDS011;271;51.114;13.780;2024-03-02T08:48:38;43.23;;;20.30;;
572;SDS011;271;51.114;13.780;2024-03-02T08:51:27;39.53;;;18.00;;
572;SDS011;271;51.114;13.780;2024-03-02T08:54:15;38.73;;;17.00;;
572;SDS011;271;51.114;13.780;2024-03-02T08:57:03;36.73;;;18.20;;
572;SDS011;271;51.114;13.780;2024-03-02T08:59:50;36.37;;;16.63;;
572;SDS011;271;51.114;13.780;2024-03-02T09:02:38;31.20;;;13.90;;
572;SDS011;271;51.114;13.780;2024-03-02T09:05:26;36.93;;;16.60;;
572;SDS011;271;51.114;13.780;2024-03-02T09:08:15;31.50;;;14.03;;
572;SDS011;271;51.114;13.780;2024-03-02T09:11:03;38.10;;;14.60;;
572;SDS011;271;51.114;13.780;2024-03-02T09:13:51;30.73;;;13.13;;
572;SDS011;271;51.114;13.780;2024-03-02T09:16:40;32.00;;;13.63;;
572;SDS011;271;51.114;13.780;2024-03-02T09:19:28;30.70;;;12.73;;
572;SDS011;271;51.114;13.780;2024-03-02T09:22:16;30.70;;;12.00;;
572;SDS011;271;51.114;13.780;2024-03-02T09:25:05;30.00;;;11.90;;
572;SDS011;271;51.114;13.780;2024-03-02T09:27:54;30.70;;;11.50;;
572;SDS011;271;51.114;13.780;2024-03-02T09:30:42;26.53;;;10.77;;
572;SDS011;271;51.114;13.780;2024-03-02T09:33:30;30.10;;;11.83;;
572;SDS011;271;51.114;13.780;2024-03-02T09:36:17;25.30;;;9.93;;
572;SDS011;271;51.114;13.780;2024-03-02T09:39:07;25.93;;;9.70;;
572;SDS011;271;51.114;13.780;2024-03-02T09:41:56;28.57;;;11.53;;
572;SDS011;271;51.114;13.780;2024-03-02T09:44:45;30.50;;;12.27;;
572;SDS011;271;51.114;13.780;2024-03-02T09:47:34;28.83;;;10.93;;
572;SDS011;271;51.114;13.780;2024-03-02T09:50:21;27.63;;;11.00;;
572;SDS011;271;51.114;13.780;2024-03-02T09:53:09;26.80;;;10.67;;
572;SDS011;271;51.114;13.780;2024-03-02T09:55:58;26.50;;;10.93;;
572;SDS011;271;51.114;13.780;2024-03-02T09:58:48;29.17;;;11.27;;
572;SDS011;271;51.114;13.780;2024-03-02T10:01:36;29.73;;;12.70;;
572;SDS011;271;51.114;13.780;2024-03-02T10:04:24;33.50;;;13.57;;
572;SDS011;271;51.114;13.780;2024-03-02T10:07:13;29.17;;;12.13;;
572;SDS011;271;51.114;13.780;2024-03-02T10:10:11;34.57;;;15.20;;
572;SDS011;271;51.114;13.780;2024-03-02T10:13:03;41.17;;;15.20;;
572;SDS011;271;51.114;13.780;2024-03-02T10:15:53;33.70;;;13.77;;
572;SDS011;271;51.114;13.780;2024-03-02T10:18:42;33.03;;;13.50;;
572;SDS011;271;51.114;13.780;2024-03-02T10:21:30;33.37;;;14.03;;
572;SDS011;271;51.114;13.780;2024-03-02T10:24:17;32.37;;;15.10;;
572;SDS011;271;51.114;13.780;2024-03-02T10:27:09;31.17;;;14.00;;
572;SDS011;271;51.114;13.780;2024-03-02T10:29:57;36.00;;;16.07;;
572;SDS011;271;51.114;13.780;2024-03-02T10:32:46;36.67;;;14.83;;
572;SDS011;271;51.114;13.780;2024-03-02T10:35:36;31.03;;;13.33;;
572;SDS011;271;51.114;13.780;2024-03-02T10:38:26;30.67;;;14.20;;
572;SDS011;271;51.114;13.780;2024-03-02T10:41:16;30.87;;;14.57;;
572;SDS011;271;51.114;13.780;2024-03-02T10:44:04;28.23;;;11.37;;
572;SDS011;271;51.114;13.780;2024-03-02T10:46:53;23.90;;;8.93;;
572;SDS011;271;51.114;13.780;2024-03-02T10:49:43;26.47;;;10.67;;
572;SDS011;271;51.114;13.780;2024-03-02T10:52:34;24.77;;;10.20;;
572;SDS011;271;51.114;13.780;2024-03-02T10:55:21;25.57;;;10.10;;
572;SDS011;271;51.114;13.780;2024-03-02T10:58:09;26.23;;;9.47;;
572;SDS011;271;51.114;13.780;2024-03-02T11:00:59;25.20;;;10.87;;
572;SDS011;271;51.114;13.780;2024-03-02T11:03:49;24.10;;;9.43;;
572;SDS011;271;51.114;13.780;2024-03-02T11:06:38;28.23;;;11.37;;
572;SDS011;271;51.114;13.780;2024-03-02T11:09:33;26.80;;;10.70;;
572;SDS011;271;51.114;13.780;2024-03-02T11:12:23;25.27;;;9.83;;
572;SDS011;271;51.114;13.780;2024-03-02T11:15:17;24.03;;;9.40;;
572;SDS011;271;51.114;13.780;2024-03-02T11:18:06;25.97;;;10.17;;
572;SDS011;271;51.114;13.780;2024-03-02T11:20:55;26.53;;;10.07;;
572;SDS011;271;51.114;13.780;2024-03-02T11:23:44;24.80;;;10.03;;
572;SDS011;271;51.114;13.780;2024-03-02T11:26:32;24.80;;;9.80;;
572;SDS011;271;51.114;13.780;2024-03-02T11:32:41;30.70;;;12.70;;
572;SDS011;271;51.114;13.780;2024-03-02T11:35:28;24.70;;;9.90;;
572;SDS011;271;51.114;13.780;2024-03-02T11:38:17;26.37;;;11.60;;
572;SDS011;271;51.114;13.780;2024-03-02T11:41:07;23.43;;;8.37;;
572;SDS011;271;51.114;13.780;2024-03-02T11:43:55;27.90;;;11.90;;
572;SDS011;271;51.114;13.780;2024-03-02T11:46:44;28.97;;;11.80;;
572;SDS011;271;51.114;13.780;2024-03-02T11:49:38;26.47;;;12.03;;
572;SDS011;271;51.114;13.780;2024-03-02T11:52:29;26.90;;;11.97;;
572;SDS011;271;51.114;13.780;2024-03-02T11:55:19;31.40;;;12.67;;
572;SDS011;271;51.114;13.780;2024-03-02T11:58:09;28.20;;;12.20;;
572;SDS011;271;51.114;13.780;2024-03-02T12:00:58;28.47;;;13.70;;
572;SDS011;271;51.114;13.780;2024-03-02T12:03:46;28.17;;;11.80;;
572;SDS011;271;51.114;13.780;2024-03-02T12:06:34;25.23;;;10.40;;
572;SDS011;271;51.114;13.780;2024-03-02T12:09:22;25.90;;;10.30;;
572;SDS011;271;51.114;13.780;2024-03-02T12:12:11;23.30;;;8.90;;
572;SDS011;271;51.114;13.780;2024-03-02T12:15:06;23.10;;;8.50;;
572;SDS011;271;51.114;13.780;2024-03-02T12:17:56;24.77;;;8.67;;
572;SDS011;271;51.114;13.780;2024-03-02T12:20:44;22.97;;;8.97;;
572;SDS011;271;51.114;13.780;2024-03-02T12:23:32;25.57;;;9.97;;
572;SDS011;271;51.114;13.780;2024-03-02T12:26:20;24.90;;;9.63;;
572;SDS011;271;51.114;13.780;2024-03-02T12:29:09;24.63;;;10.00;;
572;SDS011;271;51.114;13.780;2024-03-02T12:31:58;25.70;;;10.30;;
572;SDS011;271;51.114;13.780;2024-03-02T12:34:48;28.97;;;11.40;;
572;SDS011;271;51.114;13.780;2024-03-02T12:37:42;28.10;;;11.23;;
572;SDS011;271;51.114;13.780;2024-03-02T12:40:30;24.83;;;9.53;;
572;SDS011;271;51.114;13.780;2024-03-02T12:43:18;26.27;;;10.23;;
572;SDS011;271;51.114;13.780;2024-03-02T12:46:06;27.83;;;9.93;;
572;SDS011;271;51.114;13.780;2024-03-02T12:48:55;26.20;;;10.40;;
572;SDS011;271;51.114;13.780;2024-03-02T12:51:43;26.23;;;10.07;;
572;SDS011;271;51.114;13.780;2024-03-02T12:54:33;28.73;;;13.20;;
572;SDS011;271;51.114;13.780;2024-03-02T12:57:21;29.40;;;13.03;;
572;SDS011;271;51.114;13.780;2024-03-02T13:00:18;28.70;;;12.37;;
572;SDS011;271;51.114;13.780;2024-03-02T13:03:10;27.30;;;12.80;;
572;SDS011;271;51.114;13.780;2024-03-02T13:06:07;28.77;;;12.70;;
572;SDS011;271;51.114;13.780;2024-03-02T13:08:55;31.23;;;12.13;;
572;SDS011;271;51.114;13.780;2024-03-02T13:11:43;28.13;;;12.20;;
572;SDS011;271;51.114;13.780;2024-03-02T13:14:32;30.43;;;12.37;;
572;SDS011;271;51.114;13.780;2024-03-02T13:17:21;27.70;;;11.80;;
572;SDS011;271;51.114;13.780;2024-03-02T13:20:09;25.83;;;10.83;;
572;SDS011;271;51.114;13.780;2024-03-02T13:22:58;27.00;;;11.40;;
572;SDS011;271;51.114;13.780;2024-03-02T13:25:46;29.90;;;13.27;;
572;SDS011;271;51.114;13.780;2024-03-02T13:28:34;29.83;;;12.20;;
572;SDS011;271;51.114;13.780;2024-03-02T13:31:22;28.03;;;9.87;;
572;SDS011;271;51.114;13.780;2024-03-02T13:34:10;26.70;;;11.13;;
572;SDS011;271;51.114;13.780;2024-03-02T13:36:59;27.37;;;10.40;;
572;SDS011;271;51.114;13.780;2024-03-02T13:39:49;27.10;;;9.77;;
572;SDS011;271;51.114;13.780;2024-03-02T13:42:37;26.63;;;10.03;;
572;SDS011;271;51.114;13.780;2024-03-02T13:45:27;30.33;;;11.00;;
572;SDS011;271;51.114;13.780;2024-03-02T13:48:17;25.70;;;10.73;;
572;SDS011;271;51.114;13.780;2024-03-02T13:51:18;27.43;;;11.80;;
572;SDS011;271;51.114;13.780;2024-03-02T13:54:07;27.93;;;11.47;;
572;SDS011;271;51.114;13.780;2024-03-02T13:56:56;27.60;;;11.50;;
572;SDS011;271;51.114;13.780;2024-03-02T13:59:44;26.40;;;11.17;;
572;SDS011;271;51.114;13.780;2024-03-02T14:02:35;25.13;;;9.97;;
572;SDS011;271;51.114;13.780;2024-03-02T14:05:23;25.40;;;10.80;;
572;SDS011;271;51.114;13.780;2024-03-02T14:08:11;27.97;;;10.60;;
572;SDS011;271;51.114;13.780;2024-03-02T14:10:59;26.80;;;9.73;;
572;SDS011;271;51.114;13.780;2024-03-02T14:13:49;28.33;;;10.83;;
572;SDS011;271;51.114;13.780;2024-03-02T14:16:40;27.13;;;9.07;;
572;SDS011;271;51.114;13.780;2024-03-02T14:19:28;22.93;;;8.87;;
572;SDS011;271;51.114;13.780;2024-03-02T14:22:16;24.77;;;9.40;;
572;SDS011;271;51.114;13.780;2024-03-02T14:25:04;24.93;;;9.40;;
572;SDS011;271;51.114;13.780;2024-03-02T14:27:52;24.10;;;9.40;;
572;SDS011;271;51.114;13.780;2024-03-02T14:30:41;31.70;;;10.40;;
572;SDS011;271;51.114;13.780;2024-03-02T14:33:29;25.33;;;10.00;;
572;SDS011;271;51.114;13.780;2024-03-02T14:36:17;31.00;;;10.93;;
572;SDS011;271;51.114;13.780;2024-03-02T14:39:05;23.50;;;9.50;;
572;SDS011;271;51.114;13.780;2024-03-02T14:41:56;28.63;;;11.47;;
572;SDS011;271;51.114;13.780;2024-03-02T14:44:43;25.97;;;11.10;;
572;SDS011;271;51.114;13.780;2024-03-02T14:47:33;26.77;;;11.27;;
572;SDS011;271;51.114;13.780;2024-03-02T14:50:21;26.67;;;11.50;;
572;SDS011;271;51.114;13.780;2024-03-02T14:53:09;25.37;;;11.13;;
572;SDS011;271;51.114;13.780;2024-03-02T14:55:58;29.67;;;11.83;;
572;SDS011;271;51.114;13.780;2024-03-02T14:58:45;27.63;;;11.77;;
572;SDS011;271;51.114;13.780;2024-03-02T15:01:33;29.30;;;12.47;;
572;SDS011;271;51.114;13.780;2024-03-02T15:04:23;29.27;;;12.00;;
572;SDS011;271;51.114;13.780;2024-03-02T15:07:10;27.00;;;11.13;;
572;SDS011;271;51.114;13.780;2024-03-02T15:09:58;29.47;;;13.50;;
572;SDS011;271;51.114;13.780;2024-03-02T15:12:46;28.67;;;11.43;;
572;SDS011;271;51.114;13.780;2024-03-02T15:15:34;25.87;;;10.77;;
572;SDS011;271;51.114;13.780;2024-03-02T15:18:22;26.10;;;12.03;;
572;SDS011;271;51.114;13.780;2024-03-02T15:21:11;27.60;;;12.07;;
572;SDS011;271;51.114;13.780;2024-03-02T15:23:59;26.77;;;11.90;;
572;SDS011;271;51.114;13.780;2024-03-02T15:26:47;29.07;;;11.47;;
572;SDS011;271;51.114;13.780;2024-03-02T15:29:34;26.43;;;12.33;;
572;SDS011;271;51.114;13.780;2024-03-02T15:32:22;29.10;;;12.43;;
572;SDS011;271;51.114;13.780;2024-03-02T15:35:12;28.00;;;13.50;;
572;SDS011;271;51.114;13.780;2024-03-02T15:38:01;31.40;;;12.97;;
572;SDS011;271;51.114;13.780;2024-03-02T15:40:49;28.80;;;13.23;;
572;SDS011;271;51.114;13.780;2024-03-02T15:43:37;31.73;;;14.00;;
572;SDS011;271;51.114;13.780;2024-03-02T15:46:26;31.10;;;13.67;;
572;SDS011;271;51.114;13.780;2024-03-02T15:49:14;30.00;;;13.80;;
572;SDS011;271;51.114;13.780;2024-03-02T15:52:03;28.27;;;12.87;;
572;SDS011;271;51.114;13.780;2024-03-02T15:54:52;29.43;;;14.10;;
572;SDS011;271;51.114;13.780;2024-03-02T15:57:40;30.10;;;12.60;;
572;SDS011;271;51.114;13.780;2024-03-02T16:00:28;30.77;;;14.97;;
572;SDS011;271;51.114;13.780;2024-03-02T16:03:15;30.37;;;14.40;;
572;SDS011;271;51.114;13.780;2024-03-02T16:06:03;32.80;;;15.17;;
572;SDS011;271;51.114;13.780;2024-03-02T16:08:52;30.93;;;14.40;;
572;SDS011;271;51.114;13.780;2024-03-02T16:11:43;28.50;;;13.13;;
572;SDS011;271;51.114;13.780;2024-03-02T16:14:30;26.47;;;13.43;;
572;SDS011;271;51.114;13.780;2024-03-02T16:17:20;28.23;;;12.87;;
572;SDS011;271;51.114;13.780;2024-03-02T16:20:08;31.43;;;13.50;;
572;SDS011;271;51.114;13.780;2024-03-02T16:22:56;27.87;;;12.63;;
572;SDS011;271;51.114;13.780;2024-03-02T16:25:43;27.97;;;12.50;;
572;SDS011;271;51.114;13.780;2024-03-02T16:28:32;25.17;;;11.13;;
572;SDS011;271;51.114;13.780;2024-03-02T16:31:20;26.43;;;11.77;;
572;SDS011;271;51.114;13.780;2024-03-02T16:34:08;27.30;;;12.60;;
572;SDS011;271;51.114;13.780;2024-03-02T16:36:55;29.03;;;13.13;;
572;SDS011;271;51.114;13.780;2024-03-02T16:39:43;29.07;;;13.40;;
572;SDS011;271;51.114;13.780;2024-03-02T16:42:31;27.00;;;12.53;;
572;SDS011;271;51.114;13.780;2024-03-02T16:45:20;26.13;;;12.93;;
572;SDS011;271;51.114;13.780;2024-03-02T16:48:08;27.90;;;12.70;;
572;SDS011;271;51.114;13.780;2024-03-02T16:50:56;28.20;;;11.60;;
572;SDS011;271;51.114;13.780;2024-03-02T16:53:44;29.20;;;12.37;;
572;SDS011;271;51.114;13.780;2024-03-02T16:56:37;29.70;;;13.00;;
572;SDS011;271;51.114;13.780;2024-03-02T16:59:25;27.13;;;13.03;;
572;SDS011;271;51.114;13.780;2024-03-02T17:02:14;28.70;;;13.23;;
572;SDS011;271;51.114;13.780;2024-03-02T17:05:03;26.27;;;12.20;;
572;SDS011;271;51.114;13.780;2024-03-02T17:07:51;27.80;;;13.40;;
572;SDS011;271;51.114;13.780;2024-03-02T17:10:39;25.50;;;12.90;;
572;SDS011;271;51.114;13.780;2024-03-02T17:13:27;31.07;;;12.60;;
572;SDS011;271;51.114;13.780;2024-03-02T17:16:15;28.03;;;11.17;;
572;SDS011;271;51.114;13.780;2024-03-02T17:19:04;27.07;;;12.53;;